Time;durP1;ratioP1;P1;durP2;ratioP2;P2;SDS_P1;SDS_P2;PMS_P1;PMS_P2;Temp;Humidity;BMP_temperature;BMP_pressure;BME280_temperature;BME280_humidity;BME280_pressure;Samples;Min_cycle;Max_cycle;Signal;HPM_P1;HPM_P2
2023/04/26 00:00:20;;;;;;;7.57;3.60;;;;;;;4.36;57.59;101244.13;682669;29;1140;-83
2023/04/26 00:00:44;;;;;;;6.43;3.80;;;;;;;4.31;57.30;101237.78;680154;28;1323;-83
2023/04/26 00:01:05;;;;;;;5.35;3.85;;;;;;;4.36;57.15;101249.31;680025;29;1225;-83
2023/04/26 00:01:26;;;;;;;5.35;3.80;;;;;;;4.31;57.05;101241.28;677311;29;1189;-83
2023/04/26 00:01:46;;;;;;;5.25;3.40;;;;;;;4.32;57.50;101243.06;675099;29;1442;-85
2023/04/26 00:02:07;;;;;;;5.20;3.53;;;;;;;4.29;57.10;101240.25;674905;29;1001;-86
2023/04/26 00:02:28;;;;;;;6.35;3.58;;;;;;;4.31;57.22;101238.69;674826;29;1274;-85
2023/04/26 00:02:49;;;;;;;7.25;3.83;;;;;;;4.29;56.94;101240.25;674966;29;1209;-85
2023/04/26 00:03:12;;;;;;;7.13;3.90;;;;;;;4.38;57.09;101263.19;679971;29;1284;-85
2023/04/26 00:03:32;;;;;;;7.07;3.60;;;;;;;4.33;57.17;101254.25;682685;29;1391;-85
2023/04/26 00:03:55;;;;;;;5.50;3.20;;;;;;;4.23;57.24;101233.03;680250;28;1282;-85
2023/04/26 00:04:15;;;;;;;5.90;3.25;;;;;;;4.31;57.17;101250.69;679988;29;1394;-85
2023/04/26 00:04:37;;;;;;;5.27;3.40;;;;;;;4.23;57.09;101245.06;682859;28;1298;-85
2023/04/26 00:05:00;;;;;;;6.30;3.60;;;;;;;4.23;57.45;101239.91;682816;28;1323;-86
2023/04/26 00:05:21;;;;;;;5.70;3.30;;;;;;;4.23;57.59;101245.94;682684;28;1989;-85
2023/04/26 00:05:42;;;;;;;6.57;3.40;;;;;;;4.22;57.46;101245.84;680281;29;1238;-85
2023/04/26 00:06:03;;;;;;;7.95;3.40;;;;;;;4.20;57.41;101240.56;680162;29;1291;-85
2023/04/26 00:06:23;;;;;;;9.00;3.97;;;;;;;4.34;57.09;101271.53;680031;29;1305;-86
2023/04/26 00:06:44;;;;;;;9.23;4.00;;;;;;;4.22;57.30;101241.59;679954;29;835;-86
2023/04/26 00:07:06;;;;;;;7.38;3.92;;;;;;;4.20;57.36;101240.56;677534;29;1354;-86
2023/04/26 00:07:30;;;;;;;8.20;3.70;;;;;;;4.30;57.35;101260.13;674753;29;1346;-86
2023/04/26 00:07:50;;;;;;;7.85;3.63;;;;;;;4.27;57.27;101259.03;680295;29;757;-86
2023/04/26 00:08:11;;;;;;;10.43;3.80;;;;;;;4.26;57.32;101258.16;679997;29;997;-85
2023/04/26 00:08:32;;;;;;;9.50;3.72;;;;;;;4.14;57.21;101241.88;679788;29;1164;-85
2023/04/26 00:08:52;;;;;;;7.43;3.55;;;;;;;4.20;57.23;101253.50;680014;29;1278;-85
2023/04/26 00:09:13;;;;;;;4.38;3.40;;;;;;;4.16;57.67;101251.50;687799;28;1230;-85
2023/04/26 00:09:34;;;;;;;3.63;3.10;;;;;;;4.10;57.50;101245.94;685447;28;1189;-85
2023/04/26 00:09:54;;;;;;;4.43;3.20;;;;;;;4.11;57.70;101247.75;680298;29;776;-85
2023/04/26 00:10:15;;;;;;;4.70;3.08;;;;;;;4.06;57.70;101239.69;682599;28;1064;-85
2023/04/26 00:10:35;;;;;;;4.53;3.00;;;;;;;4.09;57.83;101245.06;682897;29;1005;-86
2023/04/26 00:10:56;;;;;;;5.30;3.00;;;;;;;4.15;57.68;101253.97;682879;28;1052;-85
2023/04/26 00:11:17;;;;;;;4.80;2.95;;;;;;;4.09;57.57;101244.16;682241;29;1035;-86
2023/04/26 00:11:37;;;;;;;6.03;3.10;;;;;;;4.15;57.67;101256.56;685419;28;1327;-86
2023/04/26 00:11:59;;;;;;;4.88;3.15;;;;;;;4.18;57.71;101259.34;677307;29;1186;-85
2023/04/26 00:12:20;;;;;;;5.50;3.40;;;;;;;4.13;57.89;101250.41;677654;29;1003;-85
2023/04/26 00:12:41;;;;;;;4.50;3.40;;;;;;;4.07;57.75;101245.78;677506;29;1290;-85
2023/04/26 00:13:02;;;;;;;7.27;3.40;;;;;;;4.17;57.85;101258.44;677471;29;1150;-86
2023/04/26 00:13:25;;;;;;;9.63;3.70;;;;;;;4.08;57.97;101258.78;677566;29;1079;-85
2023/04/26 00:13:46;;;;;;;11.50;3.63;;;;;;;4.04;58.00;101246.47;681121;29;1084;-85
2023/04/26 00:14:06;;;;;;;6.40;3.50;;;;;;;4.08;57.70;101253.63;680153;29;1003;-86
2023/04/26 00:14:27;;;;;;;6.70;3.40;;;;;;;4.08;57.83;101253.63;685430;28;1188;-85
2023/04/26 00:14:48;;;;;;;6.88;3.42;;;;;;;4.13;57.97;101258.16;682826;28;1325;-85
2023/04/26 00:15:09;;;;;;;9.52;3.38;;;;;;;4.07;57.75;101254.44;682878;28;1186;-85
2023/04/26 00:15:29;;;;;;;8.85;3.33;;;;;;;4.01;57.95;101246.28;677548;29;1070;-85
2023/04/26 00:15:50;;;;;;;7.30;3.30;;;;;;;4.11;57.62;101266.72;677603;29;1281;-85
2023/04/26 00:16:12;;;;;;;6.97;3.33;;;;;;;4.05;57.80;101258.56;679859;28;1124;-86
2023/04/26 00:16:33;;;;;;;7.97;3.58;;;;;;;3.93;58.21;101242.34;682809;29;1217;-85
2023/04/26 00:16:53;;;;;;;8.83;3.83;;;;;;;3.93;58.05;101242.34;679975;28;1195;-85
2023/04/26 00:17:14;;;;;;;7.47;4.07;;;;;;;4.07;58.28;101259.59;679994;29;1130;-85
2023/04/26 00:17:35;;;;;;;6.20;3.60;;;;;;;3.99;57.89;101250.47;682609;28;1435;-86
2023/04/26 00:17:56;;;;;;;5.38;3.50;;;;;;;3.95;58.07;101245.91;682854;28;1164;-85
2023/04/26 00:18:16;;;;;;;7.00;3.50;;;;;;;4.05;58.38;101266.31;682673;28;973;-85
2023/04/26 00:18:37;;;;;;;8.68;3.80;;;;;;;4.02;58.03;101252.31;682873;28;1319;-85
2023/04/26 00:18:57;;;;;;;8.88;3.55;;;;;;;4.07;58.22;101267.34;688353;28;1162;-84
2023/04/26 00:19:18;;;;;;;8.40;3.50;;;;;;;4.04;58.28;101267.13;685910;28;1225;-86
2023/04/26 00:19:38;;;;;;;7.80;3.58;;;;;;;3.96;57.93;101255.44;683260;29;1174;-85
2023/04/26 00:19:59;;;;;;;6.97;3.60;;;;;;;3.92;58.36;101246.59;686118;28;1444;-85
2023/04/26 00:20:20;;;;;;;6.07;3.80;;;;;;;4.01;58.37;101261.78;683158;28;1089;-85
2023/04/26 00:20:41;;;;;;;5.28;3.60;;;;;;;3.96;58.51;101263.16;680736;29;1076;-86
2023/04/26 00:21:02;;;;;;;8.45;3.70;;;;;;;3.91;58.23;101249.06;683334;28;1331;-85
2023/04/26 00:21:22;;;;;;;9.27;3.75;;;;;;;3.99;58.18;101267.66;683253;28;1110;-85
2023/04/26 00:21:43;;;;;;;8.35;3.65;;;;;;;4.05;58.45;101278.38;685944;28;1128;-85
2023/04/26 00:22:04;;;;;;;6.18;3.50;;;;;;;3.92;58.44;101253.47;683433;28;1101;-86
2023/04/26 00:22:25;;;;;;;6.85;3.47;;;;;;;4.02;58.22;101273.91;680619;28;1436;-85
2023/04/26 00:22:45;;;;;;;7.77;3.50;;;;;;;3.95;58.21;101266.56;680919;29;748;-85
2023/04/26 00:23:08;;;;;;;10.43;3.55;;;;;;;3.99;58.31;101263.38;680607;29;1182;-86
2023/04/26 00:23:28;;;;;;;9.32;3.40;;;;;;;4.04;58.09;101269.72;683204;29;1187;-85
2023/04/26 00:23:49;;;;;;;7.43;3.30;;;;;;;3.93;58.19;101252.66;683477;28;796;-85
2023/04/26 00:24:10;;;;;;;4.53;3.20;;;;;;;3.93;57.92;101256.13;683221;28;1286;-85
2023/04/26 00:24:31;;;;;;;6.65;3.45;;;;;;;4.05;58.17;101270.63;683307;28;953;-85
2023/04/26 00:24:51;;;;;;;8.10;3.60;;;;;;;3.93;58.00;101255.25;688847;28;965;-85
2023/04/26 00:25:12;;;;;;;8.43;3.55;;;;;;;3.94;57.83;101255.31;683087;29;1365;-86
2023/04/26 00:25:33;;;;;;;6.75;3.40;;;;;;;3.94;57.99;101257.91;683332;29;2052;-86
2023/04/26 00:25:55;;;;;;;7.40;3.40;;;;;;;3.87;57.97;101253.19;683399;29;1223;-86
2023/04/26 00:26:16;;;;;;;7.38;3.50;;;;;;;3.92;57.97;101259.50;685306;28;1137;-85
2023/04/26 00:26:36;;;;;;;6.13;3.40;;;;;;;3.85;58.03;101249.59;685813;28;1567;-86
2023/04/26 00:26:57;;;;;;;8.82;3.72;;;;;;;3.93;58.22;101263.00;683104;28;1173;-85
2023/04/26 00:27:18;;;;;;;10.30;3.75;;;;;;;3.89;57.96;101264.50;683129;29;1095;-85
2023/04/26 00:27:38;;;;;;;11.50;3.70;;;;;;;3.75;57.99;101242.97;677910;29;1102;-86
2023/04/26 00:27:59;;;;;;;9.93;3.50;;;;;;;3.76;58.17;101243.84;683386;28;1176;-86
2023/04/26 00:28:19;;;;;;;9.05;3.47;;;;;;;3.80;58.34;101251.88;685779;28;1193;-86
2023/04/26 00:28:40;;;;;;;6.83;3.37;;;;;;;3.68;58.27;101235.63;683237;28;1401;-86
2023/04/26 00:29:02;;;;;;;5.85;3.20;;;;;;;3.68;58.15;101245.94;680511;29;1285;-86
2023/04/26 00:29:26;;;;;;;6.68;3.30;;;;;;;3.74;58.04;101266.97;675516;29;1375;-84
2023/04/26 00:29:47;;;;;;;6.95;3.40;;;;;;;3.69;58.09;101255.47;680747;29;1321;-86
2023/04/26 00:30:08;;;;;;;5.60;3.30;;;;;;;3.68;58.16;101262.31;680743;29;1185;-85
2023/04/26 00:30:29;;;;;;;5.00;3.40;;;;;;;3.69;58.41;101265.81;677965;29;1260;-85
2023/04/26 00:30:50;;;;;;;6.78;3.40;;;;;;;3.59;58.47;101250.50;683407;29;1161;-85
2023/04/26 00:31:16;;;;;;;6.78;3.30;;;;;;;3.53;58.65;101251.91;685842;28;1410;-85
2023/04/26 00:31:37;;;;;;;7.90;3.40;;;;;;;3.59;58.88;101255.66;680263;28;1502;-85
2023/04/26 00:31:58;;;;;;;5.80;3.33;;;;;;;3.60;58.54;101260.06;680651;29;1036;-85
2023/04/26 00:32:19;;;;;;;9.45;3.60;;;;;;;3.58;58.88;101257.38;680638;29;1117;-85
2023/04/26 00:32:55;;;;;;;10.35;3.60;;;;;;;3.47;58.51;101241.19;683398;28;1167;-86
2023/04/26 00:33:16;;;;;;;9.13;3.60;;;;;;;3.49;58.99;101244.75;685937;28;980;-86
2023/04/26 00:33:36;;;;;;;9.05;3.75;;;;;;;3.44;59.05;101246.16;677916;29;1219;-85
2023/04/26 00:33:57;;;;;;;7.38;3.60;;;;;;;3.49;58.89;101255.06;680661;29;1193;-86
2023/04/26 00:34:17;;;;;;;5.47;3.17;;;;;;;3.48;58.89;101253.28;686056;28;1213;-86
2023/04/26 00:34:38;;;;;;;4.70;3.00;;;;;;;3.45;59.03;101240.19;680623;29;1276;-85
2023/04/26 00:34:58;;;;;;;4.88;3.35;;;;;;;3.52;59.17;101250.13;683360;28;1180;-86
2023/04/26 00:35:19;;;;;;;5.53;3.60;;;;;;;3.46;59.04;101249.72;683214;28;1249;-85
2023/04/26 00:35:40;;;;;;;6.63;3.60;;;;;;;3.50;59.25;101261.13;677903;29;1192;-85
2023/04/26 00:36:01;;;;;;;7.70;3.30;;;;;;;3.48;59.38;101258.44;683385;28;969;-85
2023/04/26 00:36:21;;;;;;;8.10;3.20;;;;;;;3.44;59.07;101251.31;683115;28;1170;-85
2023/04/26 00:36:42;;;;;;;7.03;3.10;;;;;;;3.44;59.23;101251.31;680632;29;1184;-86
2023/04/26 00:37:04;;;;;;;5.22;2.97;;;;;;;3.38;59.12;101232.84;683256;29;1127;-85
2023/04/26 00:37:24;;;;;;;5.72;3.13;;;;;;;3.39;59.06;101238.09;680509;29;1314;-85
2023/04/26 00:37:45;;;;;;;10.00;3.47;;;;;;;3.40;59.51;101239.91;683264;29;1221;-86
2023/04/26 00:38:06;;;;;;;9.60;3.50;;;;;;;3.47;59.60;101259.25;680522;29;1185;-86
2023/04/26 00:38:27;;;;;;;8.16;3.30;;;;;;;3.48;59.68;101253.28;683246;29;1096;-85
2023/04/26 00:38:47;;;;;;;5.50;3.10;;;;;;;3.36;59.58;101231.88;675533;29;1193;-85
2023/04/26 00:39:09;;;;;;;7.30;3.05;;;;;;;3.42;59.59;101247.72;680440;29;1212;-85
2023/04/26 00:39:30;;;;;;;8.73;3.40;;;;;;;3.49;59.51;101262.81;683204;28;1117;-85
2023/04/26 00:39:50;;;;;;;9.33;3.73;;;;;;;3.37;59.28;101242.28;678024;29;1352;-85
2023/04/26 00:40:12;;;;;;;7.65;3.83;;;;;;;3.35;59.64;101242.97;683098;28;1129;-85
2023/04/26 00:40:34;;;;;;;6.32;3.80;;;;;;;3.36;59.54;101249.94;683330;28;1050;-86
2023/04/26 00:40:54;;;;;;;4.35;3.40;;;;;;;3.36;59.32;101242.19;683511;28;764;-85
2023/04/26 00:41:15;;;;;;;4.10;3.40;;;;;;;3.39;59.54;101242.38;685760;28;1007;-85
2023/04/26 00:41:36;;;;;;;5.97;3.40;;;;;;;3.39;59.77;101253.56;680632;28;1142;-85
2023/04/26 00:41:57;;;;;;;6.90;3.50;;;;;;;3.42;59.47;101258.03;683360;28;1052;-86
2023/04/26 00:42:18;;;;;;;7.13;3.22;;;;;;;3.33;59.19;101247.13;683207;28;1309;-86
2023/04/26 00:43:13;;;;;;;5.25;3.25;;;;;;;3.42;59.11;101258.94;683333;29;1283;-86
2023/04/26 00:43:35;;;;;;;6.90;3.13;;;;;;;3.33;59.27;101250.63;682405;28;1327;-86
2023/04/26 00:43:56;;;;;;;7.70;3.20;;;;;;;3.30;59.79;101245.25;682980;29;1083;-86
2023/04/26 00:44:17;;;;;;;6.25;3.28;;;;;;;3.38;59.59;101261.25;680517;29;1040;-85
2023/04/26 00:44:39;;;;;;;5.00;3.10;;;;;;;3.33;59.68;101254.88;680591;29;1156;-86
2023/04/26 00:44:59;;;;;;;6.03;2.90;;;;;;;3.30;59.67;101252.09;680672;29;1247;-86
2023/04/26 00:45:20;;;;;;;7.50;2.90;;;;;;;3.36;59.94;101262.84;685762;28;1208;-85
2023/04/26 00:45:41;;;;;;;9.40;3.30;;;;;;;3.23;59.53;101243.97;683155;28;1955;-85
2023/04/26 00:46:02;;;;;;;7.20;3.37;;;;;;;3.32;59.70;101261.75;680644;29;1153;-86
2023/04/26 00:46:22;;;;;;;5.80;3.25;;;;;;;3.35;59.85;101266.19;683032;28;1138;-86
2023/04/26 00:46:43;;;;;;;5.40;3.00;;;;;;;3.35;60.06;101267.09;685753;28;1156;-86
2023/04/26 00:47:05;;;;;;;6.95;3.35;;;;;;;3.23;59.70;101240.47;685999;28;1127;-86
2023/04/26 00:47:28;;;;;;;6.82;3.58;;;;;;;3.34;59.67;101264.41;680426;29;1201;-85
2023/04/26 00:48:00;;;;;;;5.68;3.58;;;;;;;3.38;59.83;101272.44;683304;28;1360;-86
2023/04/26 00:48:21;;;;;;;7.05;3.20;;;;;;;3.20;59.68;101236.03;685733;28;1237;-86
2023/04/26 00:48:43;;;;;;;7.13;3.35;;;;;;;3.27;59.68;101258.81;680680;28;1215;-86
2023/04/26 00:49:03;;;;;;;7.22;3.33;;;;;;;3.30;59.90;101254.69;683254;28;1366;-86
2023/04/26 00:49:27;;;;;;;5.50;3.27;;;;;;;3.26;59.96;101251.00;683306;28;1093;-85
2023/04/26 00:49:48;;;;;;;5.47;3.40;;;;;;;3.27;59.62;101253.66;678054;28;866;-86
2023/04/26 00:50:09;;;;;;;5.72;3.90;;;;;;;3.25;59.83;101250.09;680438;29;1217;-85
2023/04/26 00:50:30;;;;;;;6.00;3.92;;;;;;;3.30;59.58;101254.69;683215;29;1203;-86
2023/04/26 00:50:51;;;;;;;6.70;3.70;;;;;;;3.30;59.82;101257.25;683471;29;795;-85
2023/04/26 00:51:12;;;;;;;5.60;3.17;;;;;;;3.32;59.85;101258.25;677720;29;1285;-85
2023/04/26 00:51:34;;;;;;;5.68;3.15;;;;;;;3.32;59.95;101260.84;677944;29;1426;-86
2023/04/26 00:51:56;;;;;;;5.57;3.28;;;;;;;3.21;60.10;101242.97;678051;29;1372;-85
2023/04/26 00:52:17;;;;;;;6.68;3.60;;;;;;;3.25;60.10;101244.94;677835;29;1388;-85
2023/04/26 00:52:38;;;;;;;5.20;3.65;;;;;;;3.31;60.15;101256.47;680654;29;1116;-86
2023/04/26 00:53:01;;;;;;;4.72;3.60;;;;;;;3.24;59.96;101253.47;683237;28;1322;-85
2023/04/26 00:53:22;;;;;;;6.75;3.47;;;;;;;3.20;59.87;101240.28;683173;28;1179;-85
2023/04/26 00:53:43;;;;;;;9.10;3.40;;;;;;;3.20;59.90;101238.59;677903;29;1265;-86
2023/04/26 00:54:04;;;;;;;9.45;3.35;;;;;;;3.28;59.91;101250.31;680601;29;1169;-86
2023/04/26 00:54:25;;;;;;;7.28;3.13;;;;;;;3.20;59.72;101241.19;683162;28;1095;-86
2023/04/26 00:54:47;;;;;;;7.45;3.30;;;;;;;3.27;59.85;101258.81;683480;29;934;-86
2023/04/26 00:55:09;;;;;;;8.63;3.40;;;;;;;3.18;60.10;101232.44;683070;28;1345;-86
2023/04/26 00:55:29;;;;;;;8.85;3.40;;;;;;;3.26;59.64;101257.03;680555;29;1112;-85
2023/04/26 00:55:51;;;;;;;10.95;3.58;;;;;;;3.17;60.13;101240.09;686020;28;1228;-86
2023/04/26 00:56:11;;;;;;;9.88;3.65;;;;;;;3.11;59.96;101236.31;685864;28;1142;-85
2023/04/26 00:56:33;;;;;;;9.33;3.90;;;;;;;3.21;59.62;101258.44;683178;28;977;-86
2023/04/26 00:56:54;;;;;;;6.80;3.80;;;;;;;3.10;59.84;101243.94;688448;28;1117;-86
2023/04/26 00:57:16;;;;;;;5.93;3.60;;;;;;;3.09;59.82;101243.06;688469;28;1300;-85
2023/04/26 00:57:38;;;;;;;6.30;3.33;;;;;;;3.10;59.85;101236.19;685909;28;1144;-85
2023/04/26 00:57:59;;;;;;;6.53;3.20;;;;;;;3.18;59.80;101254.78;688595;28;1377;-85
2023/04/26 00:58:19;;;;;;;6.50;3.47;;;;;;;3.05;59.68;101235.91;683099;28;1104;-85
2023/04/26 00:58:40;;;;;;;9.65;3.70;;;;;;;3.06;59.93;101248.00;683177;29;1152;-85
2023/04/26 00:59:02;;;;;;;9.40;3.90;;;;;;;3.09;59.70;101248.22;685898;28;1258;-85
2023/04/26 00:59:22;;;;;;;9.65;3.70;;;;;;;3.07;60.34;101251.47;682785;28;1076;-85
2023/04/26 00:59:43;;;;;;;9.38;3.67;;;;;;;2.99;59.66;101236.38;683309;28;933;-86
2023/04/26 01:00:04;;;;;;;9.57;3.50;;;;;;;3.05;59.84;101248.78;683332;28;1107;-85
2023/04/26 01:00:25;;;;;;;10.05;3.90;;;;;;;2.93;60.24;101230.81;683073;29;1293;-86
2023/04/26 01:00:45;;;;;;;7.35;3.63;;;;;;;3.07;60.44;101259.22;680607;29;1270;-86
2023/04/26 01:01:06;;;;;;;6.60;3.40;;;;;;;2.98;60.16;101244.00;683123;28;1066;-86
2023/04/26 01:01:28;;;;;;;4.70;2.80;;;;;;;3.00;59.82;101243.34;683019;28;1260;-85
2023/04/26 01:01:48;;;;;;;6.82;3.20;;;;;;;2.99;60.37;101249.28;685655;28;907;-86
2023/04/26 01:02:09;;;;;;;8.18;3.17;;;;;;;2.97;60.01;101243.13;682998;28;1204;-86
2023/04/26 01:02:30;;;;;;;10.17;3.40;;;;;;;3.01;60.26;101249.41;677799;29;1199;-85
2023/04/26 01:02:50;;;;;;;8.77;3.20;;;;;;;2.91;60.12;101236.66;680750;29;833;-86
2023/04/26 01:03:11;;;;;;;7.45;3.35;;;;;;;2.98;60.30;101249.16;682959;28;1112;-86
2023/04/26 01:03:31;;;;;;;6.20;3.40;;;;;;;2.97;60.23;101240.56;680600;29;908;-85
2023/04/26 01:03:54;;;;;;;7.50;3.60;;;;;;;3.00;60.53;101248.50;677964;28;1215;-85
2023/04/26 01:04:16;;;;;;;8.63;3.58;;;;;;;2.90;59.96;101233.19;685668;28;1177;-86
2023/04/26 01:04:40;;;;;;;9.98;4.07;;;;;;;3.01;60.13;101255.44;683222;29;876;-86
2023/04/26 01:05:01;;;;;;;8.88;4.20;;;;;;;2.86;60.58;101231.19;683227;28;1254;-85
2023/04/26 01:05:21;;;;;;;6.97;4.05;;;;;;;2.87;60.06;101241.63;683004;28;1249;-85
2023/04/26 01:05:43;;;;;;;5.60;3.43;;;;;;;2.89;60.59;101243.41;685859;28;1977;-86
2023/04/26 01:06:04;;;;;;;5.47;3.40;;;;;;;2.90;60.45;101245.19;685912;28;1016;-86
2023/04/26 01:06:37;;;;;;;7.05;3.80;;;;;;;2.88;60.82;101250.25;680423;29;1011;-85
2023/04/26 01:07:00;;;;;;;7.22;3.60;;;;;;;2.90;60.51;101253.81;682808;28;1024;-85
2023/04/26 01:07:21;;;;;;;7.50;3.60;;;;;;;2.82;60.65;101236.97;682953;29;1157;-86
2023/04/26 01:08:20;;;;;;;7.53;3.60;;;;;;;2.94;60.56;101258.38;680535;29;1161;-85
2023/04/26 01:08:43;;;;;;;7.07;3.28;;;;;;;2.85;60.79;101247.47;680666;29;932;-85
2023/04/26 01:09:07;;;;;;;7.57;3.25;;;;;;;2.82;60.54;101244.69;683330;28;1015;-86
2023/04/26 01:09:30;;;;;;;7.40;3.30;;;;;;;2.80;60.40;101246.25;683688;28;1592;-85
2023/04/26 01:09:55;;;;;;;4.55;3.28;;;;;;;2.81;60.73;101245.47;688773;28;1055;-85
2023/04/26 01:10:16;;;;;;;3.55;3.10;;;;;;;2.77;60.92;101236.66;680423;29;1040;-86
2023/04/26 01:10:38;;;;;;;3.50;3.20;;;;;;;2.84;60.81;101253.41;683134;28;1002;-85
2023/04/26 01:10:59;;;;;;;4.78;3.33;;;;;;;2.75;61.08;101239.91;683490;28;1140;-84
2023/04/26 01:11:21;;;;;;;4.60;3.20;;;;;;;2.86;61.03;101255.31;688520;28;1289;-85
2023/04/26 01:11:42;;;;;;;5.80;3.30;;;;;;;2.72;60.54;101238.91;680665;29;926;-85
2023/04/26 01:12:04;;;;;;;7.78;3.22;;;;;;;2.81;61.00;101253.22;683423;28;1132;-86
2023/04/26 01:12:25;;;;;;;8.18;3.28;;;;;;;2.76;60.91;101241.69;683368;28;997;-86
2023/04/26 01:12:47;;;;;;;7.35;3.22;;;;;;;2.68;60.98;101228.28;686052;28;820;-86
2023/04/26 01:13:13;;;;;;;4.50;3.28;;;;;;;2.80;61.09;101256.56;690991;28;1109;-85
2023/04/26 01:13:36;;;;;;;5.75;3.50;;;;;;;2.83;61.14;101251.63;688721;28;1069;-85
2023/04/26 01:13:57;;;;;;;5.55;3.42;;;;;;;2.80;60.83;101257.47;686026;28;1041;-86
2023/04/26 01:14:17;;;;;;;5.30;3.30;;;;;;;2.70;60.92;101239.59;683211;29;1048;-85
2023/04/26 01:14:38;;;;;;;7.18;3.25;;;;;;;2.75;60.80;101250.22;680905;29;940;-85
2023/04/26 01:14:59;;;;;;;8.60;3.20;;;;;;;2.70;61.51;101237.91;683503;28;1052;-85
2023/04/26 01:15:20;;;;;;;10.70;3.40;;;;;;;2.80;60.81;101253.97;680668;29;1124;-85
2023/04/26 01:15:45;;;;;;;7.85;3.20;;;;;;;2.83;60.87;101260.25;685920;28;1114;-85
2023/04/26 01:16:07;;;;;;;10.45;3.40;;;;;;;2.86;60.92;101264.72;685335;28;1287;-86
2023/04/26 01:16:28;;;;;;;9.50;3.60;;;;;;;2.77;61.16;101248.63;680504;29;1397;-85
2023/04/26 01:16:48;;;;;;;10.40;3.90;;;;;;;2.86;61.13;101264.72;680650;29;828;-85
2023/04/26 01:17:09;;;;;;;8.57;3.80;;;;;;;2.84;61.65;101256.00;686022;28;1139;-85
2023/04/26 01:17:30;;;;;;;9.00;3.58;;;;;;;2.80;61.20;101251.41;683159;29;1301;-85
2023/04/26 01:17:51;;;;;;;7.57;3.67;;;;;;;2.73;61.29;101238.13;675491;29;1211;-85
2023/04/26 01:18:13;;;;;;;6.32;3.50;;;;;;;2.80;61.57;101244.56;677891;29;1121;-85
2023/04/26 01:18:34;;;;;;;6.28;3.55;;;;;;;2.80;61.15;101243.66;678091;28;1225;-86
2023/04/26 01:18:56;;;;;;;5.70;3.40;;;;;;;2.79;61.21;101241.88;678023;28;1208;-85
2023/04/26 01:19:17;;;;;;;6.88;3.40;;;;;;;2.90;61.29;101260.66;683174;28;1367;-85
2023/04/26 01:19:48;;;;;;;9.15;3.75;;;;;;;2.80;60.96;101241.09;683235;28;1411;-85
2023/04/26 01:20:12;;;;;;;9.52;3.80;;;;;;;2.86;61.18;101250.16;685727;28;1241;-85
2023/04/26 01:20:33;;;;;;;8.93;3.65;;;;;;;2.91;61.13;101252.13;683398;28;962;-85
2023/04/26 01:20:55;;;;;;;8.30;3.70;;;;;;;2.88;60.74;101237.38;675412;29;1300;-85
2023/04/26 01:21:21;;;;;;;6.70;3.70;;;;;;;2.86;61.40;101228.63;677587;29;1496;-86
2023/04/26 01:21:41;;;;;;;7.63;3.80;;;;;;;2.95;61.10;101246.41;677970;29;1131;-86
2023/04/26 01:22:03;;;;;;;8.43;4.00;;;;;;;2.96;61.34;101241.34;680472;29;1300;-85
2023/04/26 01:22:23;;;;;;;10.48;3.92;;;;;;;2.92;61.06;101241.00;677796;29;1152;-85
2023/04/26 01:22:44;;;;;;;9.25;3.88;;;;;;;2.99;61.27;101250.94;675390;29;931;-86
2023/04/26 01:23:05;;;;;;;9.83;3.83;;;;;;;2.94;61.35;101244.63;678076;29;998;-85
2023/04/26 01:23:26;;;;;;;8.90;3.75;;;;;;;2.91;61.28;101236.66;683148;28;1070;-86
2023/04/26 01:23:48;;;;;;;7.27;3.77;;;;;;;2.95;61.00;101239.53;685481;28;1387;-85
2023/04/26 01:24:11;;;;;;;6.75;3.53;;;;;;;3.06;60.96;101247.13;688435;28;1018;-86
2023/04/26 01:24:34;;;;;;;9.10;3.60;;;;;;;3.11;60.74;101249.19;685669;28;1310;-85
2023/04/26 01:24:59;;;;;;;7.97;3.50;;;;;;;3.03;60.65;101239.16;683183;29;1342;-85
2023/04/26 01:25:20;;;;;;;3.88;3.30;;;;;;;3.10;60.55;101254.25;683113;28;1307;-86
2023/04/26 01:25:41;;;;;;;5.57;3.20;;;;;;;2.98;60.96;101233.69;685694;28;1977;-85
2023/04/26 01:26:01;;;;;;;7.05;3.50;;;;;;;3.07;60.58;101254.06;685876;28;1069;-86
2023/04/26 01:26:22;;;;;;;10.73;4.10;;;;;;;3.00;60.53;101245.91;683107;29;1369;-85
2023/04/26 01:26:46;;;;;;;8.47;3.97;;;;;;;3.05;60.47;101260.81;677846;29;1035;-85
2023/04/26 01:27:08;;;;;;;7.28;3.60;;;;;;;2.94;60.66;101242.03;682868;29;1185;-85
2023/04/26 01:27:29;;;;;;;6.40;3.67;;;;;;;2.84;60.23;101236.28;683068;28;1329;-85
2023/04/26 01:27:49;;;;;;;7.23;3.80;;;;;;;2.91;60.42;101250.47;683159;29;1288;-86
2023/04/26 01:28:10;;;;;;;7.72;3.80;;;;;;;2.91;60.16;101246.97;680392;29;1248;-86
2023/04/26 01:28:33;;;;;;;7.95;3.63;;;;;;;2.89;60.01;101249.47;680506;29;1032;-86
2023/04/26 01:28:53;;;;;;;7.75;3.50;;;;;;;2.83;60.44;101243.91;680724;29;894;-85
2023/04/26 01:29:21;;;;;;;7.30;3.50;;;;;;;2.84;60.36;101248.25;683031;28;1211;-85
2023/04/26 01:29:42;;;;;;;6.75;3.15;;;;;;;2.82;60.42;101248.13;685405;28;1146;-86
2023/04/26 01:30:03;;;;;;;7.53;3.30;;;;;;;2.90;60.68;101260.66;685482;28;1346;-86
2023/04/26 01:30:25;;;;;;;6.00;3.20;;;;;;;2.82;60.72;101244.69;688431;28;1226;-86
2023/04/26 01:30:45;;;;;;;5.28;3.10;;;;;;;2.83;60.49;101249.06;688516;28;1065;-86
2023/04/26 01:31:06;;;;;;;4.95;3.28;;;;;;;2.86;60.60;101252.72;680513;28;1204;-86
2023/04/26 01:31:27;;;;;;;7.50;3.77;;;;;;;2.87;60.30;101251.03;683028;28;1104;-85
2023/04/26 01:31:48;;;;;;;7.60;4.10;;;;;;;2.96;60.85;101261.06;688515;28;1182;-85
2023/04/26 01:32:09;;;;;;;7.95;4.03;;;;;;;2.86;60.52;101242.41;685672;28;1386;-85
2023/04/26 01:32:29;;;;;;;7.20;4.10;;;;;;;2.85;60.62;101244.88;685769;28;1185;-85
2023/04/26 01:32:52;;;;;;;7.07;4.20;;;;;;;2.86;60.74;101233.78;683242;28;1397;-86
2023/04/26 01:33:14;;;;;;;6.20;3.97;;;;;;;2.86;60.46;101245.00;682954;28;1120;-85
2023/04/26 01:33:35;;;;;;;4.95;3.75;;;;;;;2.87;60.59;101243.28;677916;29;1073;-85
2023/04/26 01:33:55;;;;;;;4.40;3.58;;;;;;;2.89;60.25;101244.31;677936;29;1294;-86
2023/04/26 01:34:16;;;;;;;4.47;3.67;;;;;;;2.86;60.34;101238.94;682904;28;1153;-85
2023/04/26 01:34:39;;;;;;;6.93;3.70;;;;;;;2.86;60.32;101244.09;683156;29;1132;-85
2023/04/26 01:35:00;;;;;;;8.63;3.53;;;;;;;2.82;60.73;101226.66;680491;29;1083;-85
2023/04/26 01:35:20;;;;;;;10.63;3.30;;;;;;;2.84;60.68;101243.09;677677;29;1113;-85
2023/04/26 01:35:42;;;;;;;10.55;3.20;;;;;;;2.85;60.45;101250.03;680500;29;1207;-85
2023/04/26 01:36:07;;;;;;;12.37;3.50;;;;;;;2.87;60.44;101245.88;683201;29;1209;-85
2023/04/26 01:36:28;;;;;;;9.02;3.30;;;;;;;2.85;60.20;101247.47;680409;29;1111;-86
2023/04/26 01:36:48;;;;;;;9.63;3.50;;;;;;;2.82;60.16;101250.72;683077;29;1295;-85
2023/04/26 01:37:09;;;;;;;7.50;3.60;;;;;;;2.78;60.23;101237.53;680365;28;1304;-85
2023/04/26 01:37:30;;;;;;;8.05;3.90;;;;;;;2.87;60.14;101257.09;680525;29;1083;-85
2023/04/26 01:37:53;;;;;;;8.43;3.70;;;;;;;2.83;60.51;101264.50;680397;29;1351;-85
2023/04/26 01:38:16;;;;;;;7.68;3.33;;;;;;;2.68;60.53;101238.56;677535;29;1449;-86
2023/04/26 01:38:37;;;;;;;7.35;3.55;;;;;;;2.71;60.17;101247.41;680436;29;1194;-85
2023/04/26 01:38:57;;;;;;;5.60;3.50;;;;;;;2.65;60.64;101247.03;680494;28;1297;-85
2023/04/26 01:39:18;;;;;;;4.88;3.60;;;;;;;2.75;60.41;101263.09;677636;29;1223;-85
2023/04/26 01:39:39;;;;;;;5.05;3.60;;;;;;;2.63;60.55;101246.00;677905;29;929;-86
2023/04/26 01:39:59;;;;;;;5.50;3.70;;;;;;;2.70;60.79;101258.50;685835;28;1191;-86
2023/04/26 01:40:38;;;;;;;5.90;3.70;;;;;;;2.72;60.29;101263.78;682931;28;1059;-85
2023/04/26 01:41:00;;;;;;;6.30;3.60;;;;;;;2.61;60.78;101249.28;680535;29;1430;-86
2023/04/26 01:41:21;;;;;;;5.43;3.35;;;;;;;2.58;60.49;101248.28;680436;29;1183;-86
2023/04/26 01:41:42;;;;;;;5.72;3.50;;;;;;;2.61;60.53;101250.16;675356;29;889;-85
2023/04/26 01:42:03;;;;;;;7.07;3.80;;;;;;;2.64;60.77;101252.97;683058;29;1254;-85
2023/04/26 01:42:26;;;;;;;8.30;3.92;;;;;;;2.62;60.76;101245.91;682850;28;1300;-85
2023/04/26 01:42:46;;;;;;;8.27;3.80;;;;;;;2.70;60.32;101255.06;680457;29;1368;-85
2023/04/26 01:43:07;;;;;;;7.55;3.90;;;;;;;2.68;60.29;101249.78;680451;29;1185;-85
2023/04/26 01:43:27;;;;;;;7.33;3.73;;;;;;;2.70;60.51;101247.34;682971;28;1138;-85
2023/04/26 01:43:51;;;;;;;6.80;3.90;;;;;;;2.77;60.45;101256.38;683241;28;889;-86
2023/04/26 01:44:12;;;;;;;6.55;3.83;;;;;;;2.79;60.46;101262.50;683007;28;1120;-85
2023/04/26 01:44:33;;;;;;;6.38;3.70;;;;;;;2.66;60.28;101253.97;683092;28;918;-85
2023/04/26 01:44:55;;;;;;;6.10;3.55;;;;;;;2.72;60.31;101259.53;683025;28;1352;-86
2023/04/26 01:45:16;;;;;;;4.50;3.17;;;;;;;2.64;60.24;101249.50;685664;28;1113;-85